P/v Golden Gate — WDE5665 — position and weather

sailwx.info

Track history (hours):
 
Tides and Currents Weather Stations Pressure Air Temp Water Temp Dewpoint Dewpoint Depression Visibility Wind Speed Wind Dir Waves Ship Positions

P/v Golden Gate

Owner: San Francisco Bar Pilots Benevolent and Protective, San Francisco, CA. More information available from US FCC via Universal Licensing System and Coast Guard Vessel Documentation Center.

Last reported at 2016-May-25 14:33 UTC. Time now 2016-May-25 15:02 UTC.
Position N 37°48' W 122°24'.

Length 23 m; draft 2 m.

Type: Pilot. MMSI: 367370010.

Date/timePositionNaut miles runAvg speedWind from/ knotsBaromVisibWave heightAir tempDewpointWater temp
2016-May-25 14:33N 37°48' W 122°24'0 0.4
2016-May-25 13:33N 37°48' W 122°23'0 0.4
2016-May-25 12:33N 37°48' W 122°24'0 0.0
2016-May-25 11:33N 37°48' W 122°24'0 0.0
2016-May-25 10:33N 37°48' W 122°24'0 0.0
2016-May-25 09:33N 37°48' W 122°24'2 2.0
2016-May-25 08:33N 37°49' W 122°26'5 4.8
2016-May-25 07:34N 37°48' W 122°20'2 2.3
2016-May-25 06:34N 37°48' W 122°23'1 1.3
2016-May-25 05:34N 37°48' W 122°22'2 1.7
2016-May-25 04:33N 37°48' W 122°24'1 1.0
2016-May-25 03:34N 37°49' W 122°24'1 1.0
2016-May-25 02:33N 37°48' W 122°24'4 3.8
2016-May-25 01:34N 37°46' W 122°20'4 3.7
2016-May-25 00:33N 37°48' W 122°24'2 2.4
2016-May-24 23:33N 37°47' W 122°21'2 2.4
2016-May-24 22:33N 37°48' W 122°24'1 1.3
2016-May-24 21:34N 37°49' W 122°25'4 3.5
2016-May-24 20:33N 37°48' W 122°21'3 2.5
2016-May-24 19:34N 37°48' W 122°24'3 3.3
2016-May-24 18:34N 37°49' W 122°28'3 3.3
2016-May-24 17:33N 37°48' W 122°24'1 1.1
2016-May-24 16:33N 37°48' W 122°22'2 1.7
2016-May-24 15:33N 37°48' W 122°20'4 3.1
2016-May-24 14:19N 37°49' W 122°25'4 5.4
2016-May-24 13:33N 37°49' W 122°20'3 3.0
2016-May-24 12:33N 37°48' W 122°24'0 0.0
2016-May-24 11:34N 37°48' W 122°24'3 3.4
2016-May-24 10:34N 37°48' W 122°20'3 3.3
2016-May-24 09:33N 37°48' W 122°24'5 4.7
2016-May-24 08:34N 37°48' W 122°30'5 4.7
2016-May-24 07:33N 37°48' W 122°24'0 0.0
2016-May-24 06:33N 37°48' W 122°24'0 0.0
2016-May-24 05:33N 37°48' W 122°24'2 2.2
2016-May-24 04:33N 37°49' W 122°26'2 2.2
2016-May-24 03:33N 37°48' W 122°24'0 0.0
2016-May-24 02:33N 37°48' W 122°24'0 0.0
2016-May-24 01:33N 37°48' W 122°24'2 1.6
2016-May-24 00:34N 37°48' W 122°22'1 1.3
2016-May-23 23:33N 37°47' W 122°21'2 2.5
2016-May-23 22:33N 37°48' W 122°24'4 4.4
2016-May-23 21:34N 37°49' W 122°29'1 1.0
2016-May-23 20:33N 37°49' W 122°28'3 3.5
2016-May-23 19:33N 37°48' W 122°24'0 0.0
2016-May-23 18:33N 37°48' W 122°24'6 6.2
2016-May-23 17:32N 37°48' W 122°32'1010.0
2016-May-23 16:33N 37°48' W 122°20'3 3.4
2016-May-23 15:33N 37°48' W 122°24'4 3.7
2016-May-23 14:33N 37°48' W 122°19'5 3.4
2016-May-23 13:08N 37°49' W 122°25'1 2.1
2016-May-23 12:33N 37°48' W 122°24'0 0.0
2016-May-23 11:33N 37°48' W 122°24'2 1.8
2016-May-23 10:33N 37°47' W 122°22'2 1.7
2016-May-23 09:33N 37°48' W 122°24'3 3.0
2016-May-23 08:34N 37°48' W 122°20'3 3.0
2016-May-23 07:33N 37°48' W 122°24'0 0.0
2016-May-23 06:33N 37°48' W 122°24'0 0.0
2016-May-23 05:33N 37°48' W 122°24'0 0.0
2016-May-23 04:33N 37°48' W 122°24'0 0.0
2016-May-23 03:33N 37°48' W 122°24'0 0.0
2016-May-23 02:33N 37°48' W 122°24'0 0.0
2016-May-23 01:33N 37°48' W 122°24'0 0.0
2016-May-23 00:33N 37°48' W 122°24'0 0.0
2016-May-22 23:33N 37°48' W 122°24'3 2.5
2016-May-22 22:33N 37°46' W 122°21'1010.2
2016-May-22 21:33N 37°47' W 122°34'1313.2
2016-May-22 20:33N 37°48' W 122°18'3 3.0
2016-May-22 19:34N 37°45' W 122°20'4 4.1
2016-May-22 18:34N 37°48' W 122°24'4 3.7
2016-May-22 17:33N 37°45' W 122°22'3 3.5
2016-May-22 16:34N 37°48' W 122°24'0 0.0
2016-May-22 15:33N 37°48' W 122°24'3 2.5
2016-May-22 14:33N 37°47' W 122°21'1 1.4
2016-May-22 13:33N 37°46' W 122°21'0 0.4
2016-May-22 12:33N 37°46' W 122°22'4 4.0
2016-May-22 11:33N 37°49' W 122°25'2 1.5
2016-May-22 10:33N 37°48' W 122°24'3 2.5
2016-May-22 09:34N 37°48' W 122°21'1 0.5
2016-May-22 08:33N 37°48' W 122°20'10 9.4
2016-May-22 07:27N 37°48' W 122°33'8 8.4
2016-May-22 06:33N 37°48' W 122°24'0 0.0
2016-May-22 05:33N 37°48' W 122°24'3 3.1
2016-May-22 04:33N 37°46' W 122°21'4 3.8
2016-May-22 03:33N 37°49' W 122°24'3 3.4
2016-May-22 02:34N 37°48' W 122°20'3 3.1
2016-May-22 01:34N 37°48' W 122°24'1 0.8
2016-May-22 00:33N 37°48' W 122°23'1 0.8
2016-May-21 23:33N 37°48' W 122°24'4 3.7
2016-May-21 22:33N 37°45' W 122°21'1 0.5
2016-May-21 21:33N 37°46' W 122°21'2 2.3
2016-May-21 20:33N 37°48' W 122°20'1515.0
2016-May-21 19:33N 37°46' W 122°38'1514.9
2016-May-21 18:33N 37°48' W 122°20'3 3.3
2016-May-21 17:33N 37°48' W 122°24'0 0.0
2016-May-21 16:33N 37°48' W 122°24'1 1.1
2016-May-21 15:29N 37°49' W 122°25'1 1.3
2016-May-21 14:33N 37°48' W 122°24'0 0.0
2016-May-21 13:33N 37°48' W 122°24'0 0.0
2016-May-21 12:33N 37°48' W 122°24'0 0.0
2016-May-21 11:33N 37°48' W 122°24'0 0.0
2016-May-21 10:33N 37°48' W 122°24'0 0.0
2016-May-21 09:33N 37°48' W 122°24'0 0.0
2016-May-21 08:33N 37°48' W 122°24'0 0.0
2016-May-21 07:33N 37°48' W 122°24'0 0.0
2016-May-21 06:33N 37°48' W 122°24'0 0.0
2016-May-21 05:33N 37°48' W 122°24'0 0.0
2016-May-21 04:33N 37°48' W 122°24'0 0.0
2016-May-21 03:33N 37°48' W 122°24'0 0.0
2016-May-21 02:33N 37°48' W 122°24'0 0.0
2016-May-21 01:33N 37°48' W 122°24'0 0.0
2016-May-21 00:33N 37°48' W 122°24'0 0.0
2016-May-20 23:33N 37°48' W 122°24'4 4.3
2016-May-20 22:33N 37°48' W 122°18'1 0.7
2016-May-20 21:33N 37°47' W 122°17'0 0.0
2016-May-20 20:33N 37°47' W 122°17'1 0.6
2016-May-20 19:32N 37°48' W 122°18'3 3.6
2016-May-20 18:33N 37°48' W 122°23'4 4.1
2016-May-20 17:33N 37°47' W 122°17'0 0.0
2016-May-20 16:33N 37°47' W 122°17'0 0.0
2016-May-20 15:33N 37°47' W 122°17'0 0.0
2016-May-20 14:33N 37°47' W 122°17'0 0.0
2016-May-20 13:33N 37°47' W 122°17'0 0.0
2016-May-20 12:33N 37°47' W 122°17'0 0.0
2016-May-20 11:33N 37°47' W 122°17'0 0.0
2016-May-20 10:33N 37°47' W 122°17'0 0.0
2016-May-20 09:33N 37°47' W 122°17'0 0.0
2016-May-20 08:33N 37°47' W 122°17'0 0.0
2016-May-20 07:33N 37°47' W 122°17'0 0.0
2016-May-20 06:33N 37°47' W 122°17'0 0.0
2016-May-20 05:33N 37°47' W 122°17'0 0.0
2016-May-20 04:33N 37°47' W 122°17'0 0.0
2016-May-20 03:33N 37°47' W 122°17'0 0.0
2016-May-20 02:33N 37°47' W 122°17'0 0.0
2016-May-20 01:33N 37°47' W 122°17'0 0.0
2016-May-20 00:33N 37°47' W 122°17'0 0.0
2016-May-19 23:33N 37°47' W 122°17'0 0.0
2016-May-19 22:18N 37°47' W 122°17'0 0.0
2016-May-19 21:33N 37°47' W 122°17'0 0.0
2016-May-19 20:33N 37°47' W 122°17'0 0.0
2016-May-19 19:33N 37°47' W 122°17'0 0.0
2016-May-19 18:33N 37°47' W 122°17'0 0.0
2016-May-19 17:33N 37°47' W 122°17'0 0.0
2016-May-19 16:33N 37°47' W 122°17'0 0.0
2016-May-19 15:33N 37°47' W 122°17'0 0.0
2016-May-19 14:33N 37°47' W 122°17'0 0.0
2016-May-19 13:33N 37°47' W 122°17'0 0.0
2016-May-19 12:33N 37°47' W 122°17'0 0.0
2016-May-19 11:33N 37°47' W 122°17'0 0.0
2016-May-19 10:33N 37°47' W 122°17'0 0.0
2016-May-19 09:33N 37°47' W 122°17'0 0.0
2016-May-19 08:33N 37°47' W 122°17'0 0.0
2016-May-19 07:33N 37°47' W 122°17'0 0.0
2016-May-19 06:33N 37°47' W 122°17'0 0.0
2016-May-19 05:33N 37°47' W 122°17'0 0.0
2016-May-19 04:33N 37°47' W 122°17'0 0.0
2016-May-19 03:33N 37°47' W 122°17'0 0.0
2016-May-19 02:33N 37°47' W 122°17'0 0.0
2016-May-19 01:33N 37°47' W 122°17'0 0.0
2016-May-19 00:33N 37°47' W 122°17'0 0.0
2016-May-18 23:33N 37°47' W 122°17'0 0.0
2016-May-18 22:33N 37°47' W 122°17'0 0.0
2016-May-18 21:33N 37°47' W 122°17'0 0.0
2016-May-18 20:33N 37°47' W 122°17'  
Track history (hours):
 
Tides and Currents Weather Stations Pressure Air Temp Water Temp Dewpoint Dewpoint Depression Visibility Wind Speed Wind Dir Waves Ship Positions

P/v Golden Gate

Owner: San Francisco Bar Pilots Benevolent and Protective, San Francisco, CA. More information available from US FCC via Universal Licensing System and Coast Guard Vessel Documentation Center.

Last reported at 2016-May-25 14:33 UTC. Time now 2016-May-25 15:02 UTC.
Position N 37°48' W 122°24'.

Length 23 m; draft 2 m.

Type: Pilot. MMSI: 367370010.

Date/timePositionNaut miles runAvg speedWind from/ knotsBaromVisibWave heightAir tempDewpointWater temp
2016-May-25 14:33N 37°48' W 122°24'0 0.4
2016-May-25 13:33N 37°48' W 122°23'0 0.4
2016-May-25 12:33N 37°48' W 122°24'0 0.0
2016-May-25 11:33N 37°48' W 122°24'0 0.0
2016-May-25 10:33N 37°48' W 122°24'0 0.0
2016-May-25 09:33N 37°48' W 122°24'2 2.0
2016-May-25 08:33N 37°49' W 122°26'5 4.8
2016-May-25 07:34N 37°48' W 122°20'2 2.3
2016-May-25 06:34N 37°48' W 122°23'1 1.3
2016-May-25 05:34N 37°48' W 122°22'2 1.7
2016-May-25 04:33N 37°48' W 122°24'1 1.0
2016-May-25 03:34N 37°49' W 122°24'1 1.0
2016-May-25 02:33N 37°48' W 122°24'4 3.8
2016-May-25 01:34N 37°46' W 122°20'4 3.7
2016-May-25 00:33N 37°48' W 122°24'2 2.4
2016-May-24 23:33N 37°47' W 122°21'2 2.4
2016-May-24 22:33N 37°48' W 122°24'1 1.3
2016-May-24 21:34N 37°49' W 122°25'4 3.5
2016-May-24 20:33N 37°48' W 122°21'3 2.5
2016-May-24 19:34N 37°48' W 122°24'3 3.3
2016-May-24 18:34N 37°49' W 122°28'3 3.3
2016-May-24 17:33N 37°48' W 122°24'1 1.1
2016-May-24 16:33N 37°48' W 122°22'2 1.7
2016-May-24 15:33N 37°48' W 122°20'4 3.1
2016-May-24 14:19N 37°49' W 122°25'4 5.4
2016-May-24 13:33N 37°49' W 122°20'3 3.0
2016-May-24 12:33N 37°48' W 122°24'0 0.0
2016-May-24 11:34N 37°48' W 122°24'3 3.4
2016-May-24 10:34N 37°48' W 122°20'3 3.3
2016-May-24 09:33N 37°48' W 122°24'5 4.7
2016-May-24 08:34N 37°48' W 122°30'5 4.7
2016-May-24 07:33N 37°48' W 122°24'0 0.0
2016-May-24 06:33N 37°48' W 122°24'0 0.0
2016-May-24 05:33N 37°48' W 122°24'2 2.2
2016-May-24 04:33N 37°49' W 122°26'2 2.2
2016-May-24 03:33N 37°48' W 122°24'0 0.0
2016-May-24 02:33N 37°48' W 122°24'0 0.0
2016-May-24 01:33N 37°48' W 122°24'2 1.6
2016-May-24 00:34N 37°48' W 122°22'1 1.3
2016-May-23 23:33N 37°47' W 122°21'2 2.5
2016-May-23 22:33N 37°48' W 122°24'4 4.4
2016-May-23 21:34N 37°49' W 122°29'1 1.0
2016-May-23 20:33N 37°49' W 122°28'3 3.5
2016-May-23 19:33N 37°48' W 122°24'0 0.0
2016-May-23 18:33N 37°48' W 122°24'6 6.2
2016-May-23 17:32N 37°48' W 122°32'1010.0
2016-May-23 16:33N 37°48' W 122°20'3 3.4
2016-May-23 15:33N 37°48' W 122°24'4 3.7
2016-May-23 14:33N 37°48' W 122°19'5 3.4
2016-May-23 13:08N 37°49' W 122°25'1 2.1
2016-May-23 12:33N 37°48' W 122°24'0 0.0
2016-May-23 11:33N 37°48' W 122°24'2 1.8
2016-May-23 10:33N 37°47' W 122°22'2 1.7
2016-May-23 09:33N 37°48' W 122°24'3 3.0
2016-May-23 08:34N 37°48' W 122°20'3 3.0
2016-May-23 07:33N 37°48' W 122°24'0 0.0
2016-May-23 06:33N 37°48' W 122°24'0 0.0
2016-May-23 05:33N 37°48' W 122°24'0 0.0
2016-May-23 04:33N 37°48' W 122°24'0 0.0
2016-May-23 03:33N 37°48' W 122°24'0 0.0
2016-May-23 02:33N 37°48' W 122°24'0 0.0
2016-May-23 01:33N 37°48' W 122°24'0 0.0
2016-May-23 00:33N 37°48' W 122°24'0 0.0
2016-May-22 23:33N 37°48' W 122°24'3 2.5
2016-May-22 22:33N 37°46' W 122°21'1010.2
2016-May-22 21:33N 37°47' W 122°34'1313.2
2016-May-22 20:33N 37°48' W 122°18'3 3.0
2016-May-22 19:34N 37°45' W 122°20'4 4.1
2016-May-22 18:34N 37°48' W 122°24'4 3.7
2016-May-22 17:33N 37°45' W 122°22'3 3.5
2016-May-22 16:34N 37°48' W 122°24'0 0.0
2016-May-22 15:33N 37°48' W 122°24'3 2.5
2016-May-22 14:33N 37°47' W 122°21'1 1.4
2016-May-22 13:33N 37°46' W 122°21'0 0.4
2016-May-22 12:33N 37°46' W 122°22'4 4.0
2016-May-22 11:33N 37°49' W 122°25'2 1.5
2016-May-22 10:33N 37°48' W 122°24'3 2.5
2016-May-22 09:34N 37°48' W 122°21'1 0.5
2016-May-22 08:33N 37°48' W 122°20'10 9.4
2016-May-22 07:27N 37°48' W 122°33'8 8.4
2016-May-22 06:33N 37°48' W 122°24'0 0.0
2016-May-22 05:33N 37°48' W 122°24'3 3.1
2016-May-22 04:33N 37°46' W 122°21'4 3.8
2016-May-22 03:33N 37°49' W 122°24'3 3.4
2016-May-22 02:34N 37°48' W 122°20'3 3.1
2016-May-22 01:34N 37°48' W 122°24'1 0.8
2016-May-22 00:33N 37°48' W 122°23'1 0.8
2016-May-21 23:33N 37°48' W 122°24'4 3.7
2016-May-21 22:33N 37°45' W 122°21'1 0.5
2016-May-21 21:33N 37°46' W 122°21'2 2.3
2016-May-21 20:33N 37°48' W 122°20'1515.0
2016-May-21 19:33N 37°46' W 122°38'1514.9
2016-May-21 18:33N 37°48' W 122°20'3 3.3
2016-May-21 17:33N 37°48' W 122°24'0 0.0
2016-May-21 16:33N 37°48' W 122°24'1 1.1
2016-May-21 15:29N 37°49' W 122°25'1 1.3
2016-May-21 14:33N 37°48' W 122°24'0 0.0
2016-May-21 13:33N 37°48' W 122°24'0 0.0
2016-May-21 12:33N 37°48' W 122°24'0 0.0
2016-May-21 11:33N 37°48' W 122°24'0 0.0
2016-May-21 10:33N 37°48' W 122°24'0 0.0
2016-May-21 09:33N 37°48' W 122°24'0 0.0
2016-May-21 08:33N 37°48' W 122°24'0 0.0
2016-May-21 07:33N 37°48' W 122°24'0 0.0
2016-May-21 06:33N 37°48' W 122°24'0 0.0
2016-May-21 05:33N 37°48' W 122°24'0 0.0
2016-May-21 04:33N 37°48' W 122°24'0 0.0
2016-May-21 03:33N 37°48' W 122°24'0 0.0
2016-May-21 02:33N 37°48' W 122°24'0 0.0
2016-May-21 01:33N 37°48' W 122°24'0 0.0
2016-May-21 00:33N 37°48' W 122°24'0 0.0
2016-May-20 23:33N 37°48' W 122°24'4 4.3
2016-May-20 22:33N 37°48' W 122°18'1 0.7
2016-May-20 21:33N 37°47' W 122°17'0 0.0
2016-May-20 20:33N 37°47' W 122°17'1 0.6
2016-May-20 19:32N 37°48' W 122°18'3 3.6
2016-May-20 18:33N 37°48' W 122°23'4 4.1
2016-May-20 17:33N 37°47' W 122°17'0 0.0
2016-May-20 16:33N 37°47' W 122°17'0 0.0
2016-May-20 15:33N 37°47' W 122°17'0 0.0
2016-May-20 14:33N 37°47' W 122°17'0 0.0
2016-May-20 13:33N 37°47' W 122°17'0 0.0
2016-May-20 12:33N 37°47' W 122°17'0 0.0
2016-May-20 11:33N 37°47' W 122°17'0 0.0
2016-May-20 10:33N 37°47' W 122°17'0 0.0
2016-May-20 09:33N 37°47' W 122°17'0 0.0
2016-May-20 08:33N 37°47' W 122°17'0 0.0
2016-May-20 07:33N 37°47' W 122°17'0 0.0
2016-May-20 06:33N 37°47' W 122°17'0 0.0
2016-May-20 05:33N 37°47' W 122°17'0 0.0
2016-May-20 04:33N 37°47' W 122°17'0 0.0
2016-May-20 03:33N 37°47' W 122°17'0 0.0
2016-May-20 02:33N 37°47' W 122°17'0 0.0
2016-May-20 01:33N 37°47' W 122°17'0 0.0
2016-May-20 00:33N 37°47' W 122°17'0 0.0
2016-May-19 23:33N 37°47' W 122°17'0 0.0
2016-May-19 22:18N 37°47' W 122°17'0 0.0
2016-May-19 21:33N 37°47' W 122°17'0 0.0
2016-May-19 20:33N 37°47' W 122°17'0 0.0
2016-May-19 19:33N 37°47' W 122°17'0 0.0
2016-May-19 18:33N 37°47' W 122°17'0 0.0
2016-May-19 17:33N 37°47' W 122°17'0 0.0
2016-May-19 16:33N 37°47' W 122°17'0 0.0
2016-May-19 15:33N 37°47' W 122°17'0 0.0
2016-May-19 14:33N 37°47' W 122°17'0 0.0
2016-May-19 13:33N 37°47' W 122°17'0 0.0
2016-May-19 12:33N 37°47' W 122°17'0 0.0
2016-May-19 11:33N 37°47' W 122°17'0 0.0
2016-May-19 10:33N 37°47' W 122°17'0 0.0
2016-May-19 09:33N 37°47' W 122°17'0 0.0
2016-May-19 08:33N 37°47' W 122°17'0 0.0
2016-May-19 07:33N 37°47' W 122°17'0 0.0
2016-May-19 06:33N 37°47' W 122°17'0 0.0
2016-May-19 05:33N 37°47' W 122°17'0 0.0
2016-May-19 04:33N 37°47' W 122°17'0 0.0
2016-May-19 03:33N 37°47' W 122°17'0 0.0
2016-May-19 02:33N 37°47' W 122°17'0 0.0
2016-May-19 01:33N 37°47' W 122°17'0 0.0
2016-May-19 00:33N 37°47' W 122°17'0 0.0
2016-May-18 23:33N 37°47' W 122°17'0 0.0
2016-May-18 22:33N 37°47' W 122°17'0 0.0
2016-May-18 21:33N 37°47' W 122°17'0 0.0
2016-May-18 20:33N 37°47' W 122°17'  

Dump ship's entire track history